Time;durP1;ratioP1;P1;durP2;ratioP2;P2;SDS_P1;SDS_P2;PMS_P1;PMS_P2;Temp;Humidity;BMP_temperature;BMP_pressure;BME280_temperature;BME280_humidity;BME280_pressure;Samples;Min_cycle;Max_cycle;Signal;HPM_P1;HPM_P2
2023/12/06 00:01:53;;;;;;;1.30;1.10;;;5.10;99.90;;;;;;5100120;28;20418;-40
2023/12/06 00:04:19;;;;;;;1.87;1.33;;;5.10;99.90;;;;;;5081995;28;20204;-41
2023/12/06 00:06:45;;;;;;;1.73;1.13;;;5.10;99.90;;;;;;5066076;28;20452;-41
2023/12/06 00:09:10;;;;;;;2.50;1.33;;;5.00;99.90;;;;;;5100385;28;20185;-41
2023/12/06 00:11:36;;;;;;;1.20;1.00;;;5.00;99.90;;;;;;5100156;28;20183;-46
2023/12/06 00:14:03;;;;;;;1.40;1.10;;;5.00;99.90;;;;;;5082526;28;20172;-40
2023/12/06 00:16:29;;;;;;;1.07;0.90;;;5.00;99.90;;;;;;5082642;28;20172;-40
2023/12/06 00:18:54;;;;;;;2.13;1.07;;;5.10;99.90;;;;;;5100978;28;20491;-41
2023/12/06 00:21:20;;;;;;;1.17;0.93;;;5.10;99.90;;;;;;5100791;28;20181;-40
2023/12/06 00:23:46;;;;;;;1.27;0.87;;;5.10;99.90;;;;;;5101458;28;20231;-43
2023/12/06 00:26:11;;;;;;;2.37;0.90;;;5.10;99.90;;;;;;5081772;28;20169;-42
2023/12/06 00:28:37;;;;;;;1.20;0.83;;;5.10;99.90;;;;;;5082253;28;20195;-41
2023/12/06 00:31:02;;;;;;;1.10;0.60;;;5.10;99.90;;;;;;5066154;28;20439;-41
2023/12/06 00:33:28;;;;;;;0.97;0.70;;;5.10;99.90;;;;;;5099151;28;20215;-42
2023/12/06 00:35:55;;;;;;;1.10;0.80;;;5.10;99.90;;;;;;5098617;28;20208;-42
2023/12/06 00:38:21;;;;;;;1.30;0.80;;;5.10;99.90;;;;;;5098242;28;20415;-43
2023/12/06 00:40:46;;;;;;;1.20;0.80;;;5.10;99.90;;;;;;5082420;28;20199;-42
2023/12/06 00:43:12;;;;;;;1.93;0.87;;;5.10;99.90;;;;;;5099930;28;20204;-44
2023/12/06 00:45:38;;;;;;;1.10;0.80;;;5.10;99.90;;;;;;5099797;28;20192;-41
2023/12/06 00:48:03;;;;;;;1.43;0.90;;;5.00;99.90;;;;;;5080067;28;20669;-43
2023/12/06 00:50:29;;;;;;;1.10;0.83;;;5.00;99.90;;;;;;5097486;28;20174;-40
2023/12/06 00:52:55;;;;;;;1.00;0.70;;;5.00;99.90;;;;;;5098603;28;20176;-41
2023/12/06 00:55:20;;;;;;;1.00;0.70;;;5.00;99.90;;;;;;5098406;28;20184;-43
2023/12/06 00:57:46;;;;;;;1.00;0.70;;;5.00;99.90;;;;;;5098038;28;20180;-43
2023/12/06 01:00:12;;;;;;;1.17;0.70;;;5.00;99.90;;;;;;5098065;28;20427;-40
2023/12/06 01:02:38;;;;;;;1.00;0.80;;;5.10;99.90;;;;;;5097314;28;20249;-42
2023/12/06 01:05:05;;;;;;;0.90;0.77;;;5.10;99.90;;;;;;5078445;28;20411;-39
2023/12/06 01:07:30;;;;;;;1.83;0.70;;;5.00;99.90;;;;;;5096677;28;20831;-42
2023/12/06 01:09:56;;;;;;;1.10;0.73;;;5.00;99.90;;;;;;5079706;28;20445;-41
2023/12/06 01:12:22;;;;;;;1.00;0.70;;;5.00;99.90;;;;;;5096431;28;20187;-39
2023/12/06 01:14:48;;;;;;;1.87;0.70;;;5.00;99.90;;;;;;5096424;28;20454;-41
2023/12/06 01:17:14;;;;;;;0.87;0.60;;;5.10;99.90;;;;;;5096213;28;20419;-40
2023/12/06 01:19:39;;;;;;;0.80;0.50;;;5.10;99.90;;;;;;5097351;28;20203;-41
2023/12/06 01:22:05;;;;;;;1.47;0.97;;;5.00;99.90;;;;;;5097497;28;20518;-42
2023/12/06 01:24:31;;;;;;;1.20;0.60;;;5.00;99.90;;;;;;5097801;28;20222;-40
2023/12/06 01:26:56;;;;;;;1.20;0.80;;;5.00;99.90;;;;;;5097818;28;20176;-41
2023/12/06 01:29:22;;;;;;;1.00;0.80;;;5.00;99.90;;;;;;5098174;28;20255;-41
2023/12/06 01:31:47;;;;;;;0.80;0.60;;;5.00;99.90;;;;;;5099169;28;20161;-40
2023/12/06 01:34:13;;;;;;;1.57;0.90;;;5.00;99.90;;;;;;5097559;28;20508;-40
2023/12/06 01:36:39;;;;;;;0.70;0.43;;;5.00;99.90;;;;;;5097375;28;20258;-42
2023/12/06 01:39:05;;;;;;;0.90;0.50;;;5.00;99.90;;;;;;5097723;28;20259;-39
2023/12/06 01:41:30;;;;;;;1.20;0.67;;;5.00;99.90;;;;;;5098013;28;20426;-41
2023/12/06 01:43:56;;;;;;;1.20;0.40;;;5.00;99.90;;;;;;5080294;28;20287;-41
2023/12/06 01:46:22;;;;;;;1.47;0.63;;;5.00;99.90;;;;;;5097871;28;20180;-41
2023/12/06 01:48:48;;;;;;;0.70;0.40;;;5.00;99.90;;;;;;5098082;28;20180;-40
2023/12/06 01:51:17;;;;;;;0.90;0.43;;;5.00;99.90;;;;;;5081452;28;20214;-42
2023/12/06 01:53:43;;;;;;;0.83;0.50;;;5.00;99.90;;;;;;5098060;28;20732;-41
2023/12/06 01:56:09;;;;;;;0.80;0.50;;;5.00;99.90;;;;;;5080850;28;20816;-41
2023/12/06 01:58:37;;;;;;;1.13;0.63;;;5.00;99.90;;;;;;5099022;28;20517;-40
2023/12/06 02:01:04;;;;;;;1.10;0.53;;;5.00;99.90;;;;;;5097594;28;20863;-40
2023/12/06 02:03:29;;;;;;;0.90;0.60;;;5.00;99.90;;;;;;5097884;28;20489;-42
2023/12/06 02:05:56;;;;;;;0.90;0.53;;;5.00;99.90;;;;;;5098236;28;20419;-43
2023/12/06 02:08:22;;;;;;;1.70;0.60;;;5.00;99.90;;;;;;5080796;28;20168;-41
2023/12/06 02:10:48;;;;;;;1.00;0.50;;;5.00;99.90;;;;;;5081182;28;20406;-40
2023/12/06 02:13:13;;;;;;;0.80;0.57;;;5.00;99.90;;;;;;5080792;28;20474;-40
2023/12/06 02:15:40;;;;;;;0.97;0.77;;;5.00;99.90;;;;;;5079756;28;20426;-39
2023/12/06 02:18:07;;;;;;;3.60;1.53;;;5.00;23.10;;;;;;5063468;28;20195;-44
2023/12/06 02:20:33;;;;;;;1.63;0.80;;;5.60;1.00;;;;;;5097813;28;20879;-40
2023/12/06 02:23:00;;;;;;;1.80;0.80;;;5.80;99.90;;;;;;5080406;28;20910;-41
2023/12/06 02:25:25;;;;;;;3.10;0.60;;;5.70;99.90;;;;;;5097670;28;20843;-44
2023/12/06 02:27:51;;;;;;;0.80;0.50;;;5.70;99.90;;;;;;5079346;28;20511;-41
2023/12/06 02:30:16;;;;;;;2.23;0.70;;;5.60;31.30;;;;;;5097793;28;20180;-42
2023/12/06 02:32:42;;;;;;;0.90;0.60;;;5.50;1.00;;;;;;5097728;28;20267;-42
2023/12/06 02:35:35;;;;;;;0.80;0.50;;;5.50;1.00;;;;;;5097457;28;20304;-42
2023/12/06 02:38:02;;;;;;;3.03;0.50;;;5.40;1.00;;;;;;5075927;28;20519;-41
2023/12/06 02:40:30;;;;;;;1.03;0.67;;;5.30;1.00;;;;;;5097696;28;20426;-41
2023/12/06 02:42:57;;;;;;;1.77;0.60;;;5.30;1.00;;;;;;5079671;28;20546;-43
2023/12/06 02:45:23;;;;;;;1.20;0.80;;;5.20;99.90;;;;;;5079710;28;20893;-44
2023/12/06 02:47:48;;;;;;;1.00;0.60;;;5.20;99.90;;;;;;5097386;28;20589;-42
2023/12/06 02:50:14;;;;;;;1.50;0.70;;;5.10;99.90;;;;;;5079632;28;20184;-41
2023/12/06 02:52:39;;;;;;;0.90;0.60;;;5.10;99.90;;;;;;5096110;28;20558;-40
2023/12/06 02:55:05;;;;;;;0.80;0.50;;;5.10;99.90;;;;;;5079206;28;20176;-42
2023/12/06 02:57:31;;;;;;;0.80;0.57;;;5.10;99.90;;;;;;5097550;28;20187;-41
2023/12/06 02:59:57;;;;;;;0.70;0.50;;;5.10;99.90;;;;;;5079031;28;20422;-41
2023/12/06 03:02:22;;;;;;;0.90;0.60;;;5.00;99.90;;;;;;5079212;28;20255;-43
2023/12/06 03:04:48;;;;;;;0.80;0.43;;;5.00;99.90;;;;;;5095524;28;20549;-40
2023/12/06 03:07:13;;;;;;;0.70;0.50;;;5.00;99.90;;;;;;5095766;28;20177;-41
2023/12/06 03:09:39;;;;;;;0.93;0.50;;;5.00;99.90;;;;;;5096843;28;20562;-41
2023/12/06 03:12:07;;;;;;;0.70;0.40;;;5.00;99.90;;;;;;5096879;28;20245;-40
2023/12/06 03:14:32;;;;;;;0.80;0.60;;;5.00;99.90;;;;;;5078467;28;20267;-43
2023/12/06 03:16:58;;;;;;;0.80;0.50;;;5.00;99.90;;;;;;5096217;28;20454;-40
2023/12/06 03:19:24;;;;;;;0.80;0.40;;;5.00;99.90;;;;;;5096918;28;20180;-45
2023/12/06 03:21:50;;;;;;;0.80;0.40;;;5.00;99.90;;;;;;5096609;28;20194;-43
2023/12/06 03:24:15;;;;;;;0.93;0.50;;;5.00;99.90;;;;;;5079777;28;20474;-41
2023/12/06 03:26:41;;;;;;;0.80;0.40;;;5.00;99.90;;;;;;5096455;28;20572;-41
2023/12/06 03:29:06;;;;;;;1.10;0.40;;;5.00;99.90;;;;;;5096625;28;20176;-41
2023/12/06 03:31:32;;;;;;;0.90;0.50;;;5.00;99.90;;;;;;5079207;28;20293;-42
2023/12/06 03:33:58;;;;;;;0.90;0.43;;;5.00;99.90;;;;;;5096580;28;20255;-41
2023/12/06 03:36:23;;;;;;;0.70;0.30;;;5.00;99.90;;;;;;5097224;28;20226;-41
2023/12/06 03:38:49;;;;;;;0.90;0.60;;;5.00;99.90;;;;;;5096773;28;20185;-41
2023/12/06 03:41:14;;;;;;;1.10;0.37;;;5.00;99.90;;;;;;5097633;28;20172;-41
2023/12/06 03:43:40;;;;;;;0.70;0.40;;;5.00;99.90;;;;;;5096848;28;20196;-43
2023/12/06 03:46:08;;;;;;;0.80;0.40;;;5.00;99.90;;;;;;5095981;28;20172;-41
2023/12/06 03:48:34;;;;;;;0.80;0.43;;;5.00;99.90;;;;;;5095535;28;20538;-40
2023/12/06 03:51:00;;;;;;;2.13;0.50;;;5.00;99.90;;;;;;5095439;28;20476;-43
2023/12/06 03:53:25;;;;;;;0.70;0.30;;;5.00;99.90;;;;;;5095411;28;20177;-42
2023/12/06 03:55:51;;;;;;;0.70;0.30;;;5.00;99.90;;;;;;5093384;28;20870;-43
2023/12/06 03:58:17;;;;;;;1.77;0.50;;;5.10;99.90;;;;;;5095427;28;20192;-39
2023/12/06 04:00:42;;;;;;;0.80;0.40;;;5.00;99.90;;;;;;5096263;28;20253;-41
2023/12/06 04:03:08;;;;;;;1.00;0.30;;;5.00;99.90;;;;;;5079101;28;20724;-39
2023/12/06 04:05:34;;;;;;;0.90;0.40;;;5.00;99.90;;;;;;5095788;28;20272;-40
2023/12/06 04:08:00;;;;;;;0.73;0.40;;;5.10;99.90;;;;;;5096331;28;20161;-41
2023/12/06 04:10:26;;;;;;;0.60;0.30;;;5.00;99.90;;;;;;5095825;28;20505;-40
2023/12/06 04:12:51;;;;;;;0.90;0.43;;;5.10;99.90;;;;;;5095258;28;20847;-42
2023/12/06 04:15:17;;;;;;;0.70;0.40;;;5.10;99.90;;;;;;5060779;28;20180;-41
2023/12/06 04:17:43;;;;;;;0.70;0.40;;;5.10;99.90;;;;;;5095696;28;20172;-41
2023/12/06 04:20:09;;;;;;;0.90;0.50;;;5.00;99.90;;;;;;5094790;28;20172;-42
2023/12/06 04:22:35;;;;;;;0.70;0.40;;;5.00;99.90;;;;;;5094367;28;20181;-41
2023/12/06 04:25:01;;;;;;;0.70;0.30;;;5.00;99.90;;;;;;5095981;28;20441;-43
2023/12/06 04:27:27;;;;;;;0.90;0.47;;;5.10;99.90;;;;;;5096357;28;20491;-40
2023/12/06 04:29:52;;;;;;;0.60;0.30;;;5.10;99.90;;;;;;5096255;28;20441;-40
2023/12/06 04:32:18;;;;;;;0.80;0.40;;;5.10;99.90;;;;;;5096536;28;20189;-41
2023/12/06 04:34:51;;;;;;;0.70;0.40;;;5.10;99.90;;;;;;5096865;28;20369;-42
2023/12/06 04:37:17;;;;;;;0.80;0.50;;;5.10;99.90;;;;;;5096047;28;20177;-42
2023/12/06 04:39:42;;;;;;;0.70;0.40;;;5.10;99.90;;;;;;5094928;28;20515;-42
2023/12/06 04:42:08;;;;;;;1.30;0.47;;;5.10;99.90;;;;;;5099056;28;20180;-41
2023/12/06 04:44:33;;;;;;;0.77;0.30;;;5.10;99.00;;;;;;5099024;28;20207;-41
2023/12/06 04:46:59;;;;;;;0.87;0.40;;;5.10;99.90;;;;;;5097750;28;20229;-42
2023/12/06 04:49:24;;;;;;;0.70;0.40;;;5.10;99.90;;;;;;5099052;28;20206;-41
2023/12/06 04:51:50;;;;;;;0.80;0.40;;;5.10;99.90;;;;;;5098452;28;20245;-41
2023/12/06 04:54:16;;;;;;;1.33;0.60;;;5.10;99.90;;;;;;5098231;28;20190;-43
2023/12/06 04:56:41;;;;;;;1.00;0.60;;;5.10;99.90;;;;;;5096376;28;20188;-41
2023/12/06 04:59:07;;;;;;;1.73;0.60;;;5.10;99.90;;;;;;5097182;28;20255;-41
2023/12/06 05:01:32;;;;;;;0.80;0.50;;;5.10;98.10;;;;;;5098460;28;20249;-41
2023/12/06 05:03:58;;;;;;;1.00;0.50;;;5.10;97.70;;;;;;5098080;28;20665;-42
2023/12/06 05:06:23;;;;;;;0.70;0.30;;;5.10;86.50;;;;;;5097062;28;20480;-41
2023/12/06 05:08:49;;;;;;;0.90;0.43;;;5.10;70.20;;;;;;5096065;28;20183;-41
2023/12/06 05:11:14;;;;;;;1.00;0.50;;;5.10;94.40;;;;;;5096691;28;20180;-43
2023/12/06 05:13:40;;;;;;;0.80;0.40;;;5.10;99.90;;;;;;5097806;28;20413;-44
2023/12/06 05:16:06;;;;;;;0.70;0.40;;;5.10;99.90;;;;;;5095086;28;20660;-43
2023/12/06 05:18:31;;;;;;;0.80;0.30;;;5.10;99.90;;;;;;5096734;28;20202;-43
2023/12/06 05:20:57;;;;;;;1.00;0.50;;;5.10;99.90;;;;;;5095948;28;20240;-42
2023/12/06 05:23:23;;;;;;;1.00;0.60;;;5.10;99.90;;;;;;5095029;28;20232;-41
2023/12/06 05:25:48;;;;;;;0.83;0.53;;;5.20;99.90;;;;;;5096453;28;20250;-43
2023/12/06 05:28:14;;;;;;;0.70;0.40;;;5.10;99.90;;;;;;5096133;28;20176;-40
2023/12/06 05:30:39;;;;;;;0.90;0.60;;;5.20;99.90;;;;;;5095357;28;20271;-40
2023/12/06 05:33:07;;;;;;;1.30;0.53;;;5.20;99.90;;;;;;5095439;28;20296;-41
2023/12/06 05:35:33;;;;;;;0.93;0.50;;;5.20;99.90;;;;;;5095759;28;20287;-43
2023/12/06 05:37:58;;;;;;;0.80;0.50;;;5.10;99.90;;;;;;5093622;28;20590;-41
2023/12/06 05:40:24;;;;;;;1.17;0.53;;;5.10;99.90;;;;;;5094869;28;20343;-40
2023/12/06 05:42:49;;;;;;;0.90;0.50;;;5.10;99.90;;;;;;5094712;28;20324;-41
2023/12/06 05:45:16;;;;;;;1.00;0.50;;;5.10;99.90;;;;;;5094660;28;20570;-41
2023/12/06 05:47:41;;;;;;;0.77;0.50;;;5.20;99.90;;;;;;5096011;28;20173;-45
2023/12/06 05:50:10;;;;;;;0.90;0.70;;;5.10;99.90;;;;;;5095999;28;20572;-41
2023/12/06 05:52:36;;;;;;;0.80;0.47;;;5.10;99.90;;;;;;5093614;28;20187;-42
2023/12/06 05:55:02;;;;;;;0.80;0.50;;;5.10;99.90;;;;;;5092338;28;20579;-40
2023/12/06 05:57:28;;;;;;;2.33;0.60;;;5.10;99.90;;;;;;5092907;28;20837;-43
2023/12/06 05:59:54;;;;;;;1.00;0.70;;;5.10;99.90;;;;;;5092550;28;20186;-41
2023/12/06 06:02:20;;;;;;;1.00;0.60;;;5.00;99.90;;;;;;5092808;28;20414;-41
2023/12/06 06:04:45;;;;;;;1.03;0.50;;;5.10;99.90;;;;;;5091917;28;20594;-40
2023/12/06 06:07:11;;;;;;;0.73;0.40;;;5.10;99.90;;;;;;5093529;28;20168;-41
2023/12/06 06:09:36;;;;;;;0.90;0.60;;;5.00;99.90;;;;;;5092731;28;20616;-42
2023/12/06 06:12:03;;;;;;;0.97;0.60;;;5.00;99.90;;;;;;5091683;28;20194;-42
2023/12/06 06:14:29;;;;;;;1.10;0.77;;;5.00;99.90;;;;;;5092421;28;20168;-43
2023/12/06 06:16:55;;;;;;;1.17;0.60;;;5.00;99.90;;;;;;5093158;28;20495;-40
2023/12/06 06:19:20;;;;;;;1.50;1.03;;;5.00;99.90;;;;;;5093528;28;20208;-44
2023/12/06 06:21:46;;;;;;;1.00;0.60;;;4.90;99.90;;;;;;5091526;28;20267;-43
2023/12/06 06:24:11;;;;;;;1.20;0.80;;;4.90;99.90;;;;;;5070593;28;20232;-41
2023/12/06 06:26:37;;;;;;;1.33;0.70;;;5.00;99.90;;;;;;5084824;28;20366;-42
2023/12/06 06:29:03;;;;;;;1.37;0.90;;;5.00;99.90;;;;;;5087816;28;20175;-41
2023/12/06 06:31:28;;;;;;;1.17;0.70;;;5.00;99.90;;;;;;5086898;28;20186;-39
2023/12/06 06:33:54;;;;;;;0.90;0.57;;;5.00;99.90;;;;;;5088168;28;20263;-43
2023/12/06 06:36:19;;;;;;;1.50;1.40;;;5.00;99.90;;;;;;5090121;28;20489;-40
2023/12/06 06:38:46;;;;;;;0.97;0.53;;;5.00;99.90;;;;;;5090912;28;20192;-41
2023/12/06 06:41:11;;;;;;;1.53;0.70;;;5.00;99.90;;;;;;5094355;28;20172;-39
2023/12/06 06:43:37;;;;;;;0.90;0.63;;;5.00;99.90;;;;;;5110594;28;20491;-41
2023/12/06 06:46:03;;;;;;;1.00;0.60;;;5.00;99.90;;;;;;5112907;28;20263;-39
2023/12/06 06:48:28;;;;;;;1.53;0.63;;;5.00;99.90;;;;;;5113601;28;20428;-40
2023/12/06 06:50:54;;;;;;;1.70;0.90;;;5.00;99.90;;;;;;5112650;28;20176;-40
2023/12/06 06:53:19;;;;;;;1.00;0.70;;;5.00;99.90;;;;;;5110738;28;20225;-40
2023/12/06 06:55:45;;;;;;;1.40;0.70;;;4.30;99.90;;;;;;5111173;28;20190;-40
2023/12/06 06:58:10;;;;;;;1.97;1.10;;;5.00;99.90;;;;;;5111726;28;20276;-40
2023/12/06 07:00:36;;;;;;;1.20;0.90;;;5.00;99.90;;;;;;5110963;28;20461;-43
2023/12/06 07:03:02;;;;;;;0.90;0.60;;;5.10;99.90;;;;;;5107327;28;20210;-40
2023/12/06 07:05:27;;;;;;;3.57;0.80;;;5.10;99.90;;;;;;5108730;28;20159;-42
2023/12/06 07:07:53;;;;;;;1.50;0.80;;;5.00;99.90;;;;;;5111195;28;20164;-40
2023/12/06 07:10:18;;;;;;;1.20;0.80;;;5.10;99.90;;;;;;5095106;28;20595;-40
2023/12/06 07:12:44;;;;;;;1.30;0.70;;;5.10;99.90;;;;;;5111589;28;20490;-42
2023/12/06 07:15:14;;;;;;;0.97;0.60;;;5.10;99.90;;;;;;5111554;28;20529;-39
2023/12/06 07:17:41;;;;;;;1.10;0.60;;;5.20;99.90;;;;;;5093229;28;20584;-40
2023/12/06 07:20:09;;;;;;;0.80;0.40;;;5.20;99.90;;;;;;5113088;28;20680;-40
2023/12/06 07:22:34;;;;;;;2.10;0.77;;;5.20;99.90;;;;;;5114791;28;20849;-41
2023/12/06 07:25:00;;;;;;;1.20;0.57;;;5.20;99.90;;;;;;5096230;28;20577;-40
2023/12/06 07:27:26;;;;;;;1.30;0.70;;;5.20;99.90;;;;;;5113177;28;20171;-42
2023/12/06 07:29:51;;;;;;;1.50;0.97;;;5.20;99.90;;;;;;5113961;28;20183;-41
2023/12/06 07:32:17;;;;;;;1.00;0.50;;;5.20;99.90;;;;;;5112408;28;20263;-42
2023/12/06 07:34:42;;;;;;;1.37;0.67;;;5.20;99.90;;;;;;5113318;28;20235;-40
2023/12/06 07:37:08;;;;;;;0.90;0.73;;;5.30;99.90;;;;;;5094960;28;20271;-42
2023/12/06 07:39:34;;;;;;;1.17;0.60;;;5.30;99.90;;;;;;5111363;28;20459;-42
2023/12/06 07:41:59;;;;;;;1.07;0.80;;;5.40;99.90;;;;;;5112012;28;20438;-42
2023/12/06 07:44:25;;;;;;;1.00;0.90;;;5.30;99.90;;;;;;5112736;28;20493;-41
2023/12/06 07:46:50;;;;;;;1.80;1.00;;;5.40;99.90;;;;;;5112994;28;20505;-40
2023/12/06 07:49:16;;;;;;;1.60;0.73;;;5.40;99.90;;;;;;5111988;28;20179;-41
2023/12/06 07:51:42;;;;;;;1.67;0.90;;;5.40;99.90;;;;;;5112921;28;20276;-42
2023/12/06 07:54:08;;;;;;;2.00;0.93;;;5.40;99.90;;;;;;5114370;28;20429;-44
2023/12/06 07:56:33;;;;;;;1.20;0.87;;;5.40;97.70;;;;;;5096628;28;20267;-43
2023/12/06 07:59:00;;;;;;;1.33;0.93;;;5.40;99.90;;;;;;5112958;28;20918;-40
2023/12/06 08:01:30;;;;;;;1.73;1.20;;;5.50;99.90;;;;;;5111081;28;20321;-42
2023/12/06 08:04:00;;;;;;;3.17;1.23;;;5.50;99.90;;;;;;5110734;28;20634;-41
2023/12/06 08:06:26;;;;;;;1.47;1.20;;;5.50;88.60;;;;;;5114293;28;20428;-42
2023/12/06 08:08:53;;;;;;;1.60;1.37;;;5.50;59.10;;;;;;5114128;28;20549;-40
2023/12/06 08:11:19;;;;;;;2.27;1.67;;;5.50;63.30;;;;;;5112837;28;20483;-40
2023/12/06 08:13:47;;;;;;;2.23;1.70;;;5.60;58.90;;;;;;5113038;28;20420;-40
2023/12/06 08:16:12;;;;;;;1.70;1.30;;;5.60;79.80;;;;;;5116234;28;20528;-40
2023/12/06 08:18:38;;;;;;;1.73;1.13;;;5.60;84.80;;;;;;5099326;28;20683;-40
2023/12/06 08:21:07;;;;;;;2.83;1.47;;;5.70;67.40;;;;;;5115372;28;20447;-42
2023/12/06 08:23:36;;;;;;;1.93;1.47;;;5.70;45.30;;;;;;5115431;28;20298;-40
2023/12/06 08:26:04;;;;;;;1.73;1.57;;;5.80;17.40;;;;;;5114459;28;20484;-43
2023/12/06 08:28:29;;;;;;;1.33;1.20;;;5.80;7.40;;;;;;5114847;28;20711;-41
2023/12/06 08:30:55;;;;;;;2.70;1.50;;;5.80;1.00;;;;;;5113449;28;20422;-39
2023/12/06 08:33:23;;;;;;;2.40;1.80;;;5.90;1.00;;;;;;5115189;28;20711;-40
2023/12/06 08:35:51;;;;;;;1.70;1.33;;;5.90;1.00;;;;;;5116857;28;20215;-41
2023/12/06 08:38:16;;;;;;;1.73;1.53;;;5.90;1.00;;;;;;5114505;28;20715;-40
2023/12/06 08:40:43;;;;;;;2.50;2.10;;;5.90;1.00;;;;;;5114185;28;20401;-43
2023/12/06 08:43:08;;;;;;;3.50;2.60;;;5.90;1.00;;;;;;5078929;28;20508;-42
2023/12/06 08:45:34;;;;;;;4.17;3.20;;;5.90;1.00;;;;;;5115458;28;20522;-39
2023/12/06 08:48:00;;;;;;;3.00;2.70;;;6.00;1.00;;;;;;5115920;28;20183;-42
2023/12/06 08:50:26;;;;;;;4.07;3.67;;;5.90;1.00;;;;;;5114104;28;20695;-45
2023/12/06 08:52:51;;;;;;;6.00;5.27;;;6.00;99.90;;;;;;5115785;28;20175;-43
2023/12/06 08:55:17;;;;;;;7.00;6.30;;;6.10;99.90;;;;;;5116833;28;20183;-42
2023/12/06 08:57:43;;;;;;;5.70;4.87;;;6.20;99.90;;;;;;5116494;28;20421;-42
2023/12/06 09:00:12;;;;;;;5.63;5.00;;;6.20;1.00;;;;;;5098466;28;20182;-41
2023/12/06 09:02:41;;;;;;;10.67;8.27;;;6.30;1.00;;;;;;5117038;28;20172;-41
2023/12/06 09:05:07;;;;;;;8.63;7.73;;;6.40;99.90;;;;;;5116483;28;20726;-41
2023/12/06 09:07:32;;;;;;;8.60;7.70;;;6.40;99.90;;;;;;5115985;28;20575;-40
2023/12/06 09:09:58;;;;;;;7.40;6.70;;;6.30;42.90;;;;;;5115402;28;20422;-41
2023/12/06 09:12:24;;;;;;;7.23;6.33;;;6.50;1.00;;;;;;5097412;28;20226;-40
2023/12/06 09:14:49;;;;;;;6.67;5.97;;;6.60;1.00;;;;;;5117187;28;20192;-40
2023/12/06 09:17:15;;;;;;;7.63;6.70;;;6.50;99.90;;;;;;5098365;28;20179;-43
2023/12/06 09:19:40;;;;;;;8.27;6.80;;;6.50;99.90;;;;;;5116656;28;20222;-41
2023/12/06 09:22:06;;;;;;;7.20;6.60;;;6.40;96.20;;;;;;5117598;28;20190;-41
2023/12/06 09:24:32;;;;;;;7.03;6.43;;;6.40;99.90;;;;;;5118625;28;20207;-41
2023/12/06 09:26:58;;;;;;;5.90;4.07;;;6.30;99.90;;;;;;5115637;28;20919;-51
2023/12/06 09:29:24;;;;;;;11.03;4.10;;;6.50;1.00;;;;;;5115986;28;20394;-46
2023/12/06 09:31:49;;;;;;;8.90;5.27;;;7.80;1.00;;;;;;5114850;28;20167;-45
2023/12/06 09:34:15;;;;;;;9.70;6.17;;;9.00;1.00;;;;;;5115283;28;20246;-43
2023/12/06 09:36:40;;;;;;;7.90;5.30;;;9.90;1.00;;;;;;5097541;28;20188;-44
2023/12/06 09:39:06;;;;;;;8.13;7.43;;;10.30;1.00;;;;;;5114847;28;20569;-41
2023/12/06 09:41:33;;;;;;;8.00;7.20;;;10.20;1.00;;;;;;5097982;28;20321;-41
2023/12/06 09:43:59;;;;;;;9.87;6.90;;;10.00;1.00;;;;;;5114725;28;20457;-42
2023/12/06 09:46:25;;;;;;;8.17;7.37;;;9.50;9.80;;;;;;5116550;28;20426;-41
2023/12/06 09:48:52;;;;;;;7.13;6.50;;;9.10;1.00;;;;;;5099259;28;20436;-42
2023/12/06 09:51:19;;;;;;;8.20;7.30;;;8.70;99.90;;;;;;5099122;28;20456;-42
2023/12/06 09:53:44;;;;;;;7.83;7.13;;;7.80;1.00;;;;;;5118157;28;20448;-44
2023/12/06 09:56:11;;;;;;;8.10;7.30;;;8.10;99.90;;;;;;5117958;28;20679;-41
2023/12/06 09:58:36;;;;;;;8.77;7.97;;;7.80;99.90;;;;;;5097082;28;20361;-43
2023/12/06 10:01:03;;;;;;;7.77;6.97;;;7.60;99.90;;;;;;5115347;28;20444;-42
2023/12/06 10:03:28;;;;;;;7.20;6.60;;;6.60;99.90;;;;;;5115161;28;20493;-42
2023/12/06 10:05:59;;;;;;;8.40;7.50;;;7.40;99.90;;;;;;5115796;28;20421;-41
2023/12/06 10:08:25;;;;;;;9.20;8.27;;;7.40;99.90;;;;;;5114601;28;20411;-41
2023/12/06 10:11:00;;;;;;;8.47;7.60;;;7.10;99.90;;;;;;5097165;28;20467;-41
2023/12/06 10:13:37;;;;;;;8.40;7.60;;;7.00;99.90;;;;;;5113011;28;20577;-42
2023/12/06 10:16:15;;;;;;;8.30;7.50;;;6.80;99.90;;;;;;5112897;28;20456;-46
2023/12/06 10:18:41;;;;;;;8.63;7.73;;;6.70;1.00;;;;;;5115045;28;20425;-42
2023/12/06 10:21:06;;;;;;;8.17;7.37;;;6.60;1.00;;;;;;5096906;28;20436;-42
2023/12/06 10:23:32;;;;;;;8.73;7.80;;;6.60;1.00;;;;;;5115506;28;20237;-40
2023/12/06 10:25:58;;;;;;;8.30;7.57;;;6.60;20.00;;;;;;5116358;28;20448;-44
2023/12/06 10:28:24;;;;;;;9.40;8.37;;;6.50;1.00;;;;;;5115482;28;20207;-41
2023/12/06 10:31:03;;;;;;;8.17;7.37;;;6.50;1.00;;;;;;5114688;28;20183;-43
2023/12/06 10:33:31;;;;;;;8.50;7.80;;;6.40;31.70;;;;;;5114372;28;20441;-42
2023/12/06 10:36:00;;;;;;;9.00;8.10;;;6.40;56.70;;;;;;5113674;28;20425;-40
2023/12/06 10:38:29;;;;;;;8.70;7.90;;;6.50;87.90;;;;;;5113876;28;20425;-41
2023/12/06 10:40:58;;;;;;;7.67;6.97;;;6.50;99.90;;;;;;5093945;28;20398;-40
2023/12/06 10:43:28;;;;;;;9.90;8.90;;;6.50;99.90;;;;;;5112208;28;20461;-40
2023/12/06 10:45:54;;;;;;;8.23;7.53;;;6.60;99.90;;;;;;5112672;28;20448;-40
2023/12/06 10:48:20;;;;;;;7.97;7.17;;;6.60;51.30;;;;;;5114124;28;20432;-41
2023/12/06 10:50:46;;;;;;;8.07;7.17;;;6.70;1.00;;;;;;5078745;28;20834;-40
2023/12/06 10:53:16;;;;;;;8.23;7.57;;;6.70;1.00;;;;;;5113297;28;20560;-41
2023/12/06 10:55:43;;;;;;;8.07;7.27;;;6.70;1.00;;;;;;5114684;28;20179;-42
2023/12/06 10:58:09;;;;;;;8.93;8.10;;;6.70;1.00;;;;;;5097948;28;20848;-40
2023/12/06 11:00:35;;;;;;;8.27;7.40;;;6.60;1.00;;;;;;5114232;28;20430;-40
2023/12/06 11:03:01;;;;;;;8.80;7.90;;;6.60;1.00;;;;;;5112544;28;20417;-40
2023/12/06 11:05:31;;;;;;;8.70;7.80;;;6.60;1.00;;;;;;5095290;28;20432;-40
2023/12/06 11:08:15;;;;;;;8.50;7.70;;;6.50;1.00;;;;;;5112431;28;20787;-40
2023/12/06 11:10:56;;;;;;;8.83;8.00;;;6.50;1.00;;;;;;5111347;28;20496;-40
2023/12/06 11:13:40;;;;;;;7.80;7.00;;;6.50;1.00;;;;;;5077796;28;20795;-41
2023/12/06 11:16:09;;;;;;;8.87;7.97;;;6.50;1.00;;;;;;5114270;28;20429;-41
2023/12/06 11:18:44;;;;;;;8.23;7.43;;;6.50;1.00;;;;;;5115426;28;20422;-42
2023/12/06 11:21:12;;;;;;;10.23;9.23;;;6.50;1.00;;;;;;5094831;28;20851;-42
2023/12/06 11:23:38;;;;;;;10.03;8.60;;;6.40;1.00;;;;;;5095768;28;20883;-42
2023/12/06 11:26:05;;;;;;;11.00;9.50;;;6.50;1.00;;;;;;5113842;28;20488;-44
2023/12/06 11:28:39;;;;;;;9.03;7.97;;;6.40;1.00;;;;;;5113614;28;20217;-41
2023/12/06 11:31:05;;;;;;;9.07;8.17;;;6.40;1.00;;;;;;5113646;28;20425;-43
2023/12/06 11:33:31;;;;;;;9.47;7.90;;;6.40;1.00;;;;;;5112732;28;20707;-43
2023/12/06 11:35:57;;;;;;;10.13;9.07;;;6.40;1.00;;;;;;5113037;28;20350;-42
2023/12/06 11:38:35;;;;;;;8.93;7.83;;;6.50;1.00;;;;;;5111780;28;20236;-42
2023/12/06 11:41:02;;;;;;;10.23;9.23;;;6.50;1.00;;;;;;5110860;28;20327;-44
2023/12/06 11:43:35;;;;;;;9.00;8.13;;;6.60;1.00;;;;;;5093848;28;20472;-41
2023/12/06 11:46:06;;;;;;;14.40;10.97;;;6.70;1.00;;;;;;5111647;28;20432;-48
2023/12/06 11:48:40;;;;;;;11.23;9.60;;;6.70;99.90;;;;;;5112350;28;20418;-44
2023/12/06 11:51:06;;;;;;;10.03;9.00;;;6.80;99.90;;;;;;5116256;28;20421;-42
2023/12/06 11:53:35;;;;;;;9.50;8.57;;;6.70;95.90;;;;;;5116500;28;20557;-44
2023/12/06 11:56:00;;;;;;;9.40;8.60;;;6.70;99.90;;;;;;5118588;28;20417;-44
2023/12/06 11:58:30;;;;;;;9.90;9.00;;;6.60;99.90;;;;;;5100361;28;20444;-42
2023/12/06 12:00:56;;;;;;;11.53;10.50;;;6.60;99.90;;;;;;5085763;28;20441;-41
2023/12/06 12:03:22;;;;;;;10.83;9.70;;;6.60;99.90;;;;;;5099582;28;20453;-41
2023/12/06 12:05:49;;;;;;;9.27;8.40;;;6.50;99.90;;;;;;5100896;28;20705;-40
2023/12/06 12:08:15;;;;;;;10.00;8.93;;;6.50;99.90;;;;;;5117970;28;20179;-41
2023/12/06 12:10:42;;;;;;;10.23;9.33;;;6.50;99.90;;;;;;5099740;28;20425;-42
2023/12/06 12:13:18;;;;;;;8.93;8.03;;;6.50;99.90;;;;;;5080031;28;20224;-43
2023/12/06 12:15:59;;;;;;;9.60;8.70;;;6.40;99.90;;;;;;5097467;28;20510;-40
2023/12/06 12:18:28;;;;;;;8.03;7.23;;;6.40;1.00;;;;;;5059147;28;20421;-41
2023/12/06 12:20:55;;;;;;;9.77;8.87;;;6.40;1.00;;;;;;5094612;28;20428;-40
2023/12/06 12:23:22;;;;;;;8.83;8.00;;;6.40;99.90;;;;;;5077234;28;20469;-43
2023/12/06 12:25:49;;;;;;;9.27;8.37;;;6.40;99.90;;;;;;5095525;28;20458;-40
2023/12/06 12:28:18;;;;;;;7.67;6.97;;;6.40;99.90;;;;;;5077567;28;20560;-44
2023/12/06 12:30:46;;;;;;;8.80;8.00;;;6.40;1.00;;;;;;5073925;28;20435;-39
2023/12/06 12:33:14;;;;;;;9.33;8.43;;;6.40;1.00;;;;;;5080064;28;20418;-41
2023/12/06 12:35:40;;;;;;;9.10;8.20;;;6.40;1.00;;;;;;5116428;28;20445;-39
2023/12/06 12:38:07;;;;;;;9.57;8.57;;;6.50;1.00;;;;;;5082897;28;20609;-43
2023/12/06 12:40:32;;;;;;;10.43;8.60;;;6.50;99.90;;;;;;5099930;28;20425;-40
2023/12/06 12:42:58;;;;;;;8.53;7.63;;;6.50;99.90;;;;;;5115270;28;20430;-41
2023/12/06 12:45:25;;;;;;;8.50;7.60;;;6.50;99.90;;;;;;5116367;28;20172;-41
2023/12/06 12:47:51;;;;;;;9.90;9.00;;;6.50;99.90;;;;;;5082961;28;20432;-41
2023/12/06 12:50:21;;;;;;;9.70;8.70;;;6.50;99.90;;;;;;5115661;28;20425;-44
2023/12/06 12:52:49;;;;;;;8.17;4.10;;;6.50;99.90;;;;;;5098260;28;20268;-41
2023/12/06 12:55:19;;;;;;;10.80;5.50;;;6.80;99.90;;;;;;5098541;28;20422;-45